Terminal Aerodrome Forecast
Issued by NWS Wilmington, OH

Current Version | Previous Version | Graphics & Text | Print | Product List | Glossary On
Versions: 1 2 3 4 5 6 7 8 9 10 11 12 13 14 15 16 17 18 19 20
000
FTUS41 KILN 240500 RRA
TAFILN
TAF
KILN 240547Z 2406/2506 05008KT P6SM OVC012
      TEMPO 2406/2410 OVC008
     FM241300 06008KT P6SM OVC022
     FM241900 07008KT P6SM VCSH BKN035
     FM250200 13010KT P6SM VCSH OVC040=

USA.gov is the U.S. government's official web portal to all federal, state and local government web resources and services.